createdAt,value
2019-03-30T00:01:02.957Z,17.57
2019-03-30T00:03:33.318Z,21.37
2019-03-30T00:06:03.612Z,18.53
2019-03-30T00:08:34.032Z,20.60
2019-03-30T00:11:04.343Z,20.43
2019-03-30T00:13:34.673Z,19.50
2019-03-30T00:16:04.977Z,21.97
2019-03-30T00:18:35.307Z,19.17
2019-03-30T00:21:05.589Z,17.90
2019-03-30T00:23:35.955Z,17.47
2019-03-30T00:26:06.245Z,19.83
2019-03-30T00:28:36.578Z,20.03
2019-03-30T00:31:06.854Z,23.23
2019-03-30T00:33:37.171Z,19.43
2019-03-30T00:36:07.491Z,18.47
2019-03-30T00:38:37.781Z,21.43
2019-03-30T00:41:08.043Z,19.10
2019-03-30T00:43:38.340Z,18.87
2019-03-30T00:46:08.631Z,20.50
2019-03-30T00:48:41.511Z,18.70
2019-03-30T00:51:11.799Z,21.93
2019-03-30T00:53:42.159Z,19.37
2019-03-30T00:56:12.493Z,22.40
2019-03-30T00:58:42.851Z,18.70
2019-03-30T01:01:13.175Z,19.87
2019-03-30T01:03:43.467Z,18.77
2019-03-30T01:06:13.846Z,19.97
2019-03-30T01:08:44.155Z,20.40
2019-03-30T01:11:14.435Z,19.20
2019-03-30T01:13:44.814Z,19.87
2019-03-30T01:16:15.108Z,20.80
2019-03-30T01:18:45.432Z,22.73
2019-03-30T01:21:15.786Z,19.47
2019-03-30T01:23:46.088Z,20.40
2019-03-30T01:26:16.387Z,21.77
2019-03-30T01:28:46.710Z,21.50
2019-03-30T01:31:17.030Z,21.33
2019-03-30T01:33:47.379Z,20.93
2019-03-30T01:36:17.704Z,24.17
2019-03-30T01:38:48.056Z,20.77
2019-03-30T01:41:18.326Z,25.37
2019-03-30T01:43:48.676Z,23.60
2019-03-30T01:46:18.954Z,23.80
2019-03-30T01:48:49.362Z,19.60
2019-03-30T01:51:19.776Z,23.30
2019-03-30T01:53:50.096Z,22.90
2019-03-30T01:56:20.384Z,23.53
2019-03-30T01:58:50.704Z,23.83
2019-03-30T02:01:21.026Z,24.93
2019-03-30T02:03:51.410Z,24.23
2019-03-30T02:06:21.672Z,25.07
2019-03-30T02:08:51.981Z,25.33
2019-03-30T02:11:22.296Z,24.33
2019-03-30T02:13:52.613Z,26.27
2019-03-30T02:16:22.910Z,26.93
2019-03-30T02:18:53.256Z,26.27
2019-03-30T02:21:23.578Z,24.23
2019-03-30T02:23:53.856Z,25.67
2019-03-30T02:26:24.168Z,24.70
2019-03-30T02:28:54.574Z,25.83
2019-03-30T02:31:24.881Z,25.23
2019-03-30T02:33:55.183Z,29.03
2019-03-30T02:36:25.460Z,26.37
2019-03-30T02:38:55.773Z,27.43
2019-03-30T02:41:26.058Z,27.47
2019-03-30T02:43:56.387Z,25.40
2019-03-30T02:46:26.646Z,29.20
2019-03-30T02:48:56.985Z,28.73
2019-03-30T02:51:27.241Z,30.00
2019-03-30T02:53:57.599Z,29.53
2019-03-30T02:56:27.871Z,33.87
2019-03-30T02:58:58.197Z,28.57
2019-03-30T03:01:28.541Z,27.27
2019-03-30T03:03:58.819Z,29.00
2019-03-30T03:06:29.103Z,30.20
2019-03-30T03:08:59.410Z,29.57
2019-03-30T03:11:30.061Z,26.17
2019-03-30T03:14:00.370Z,28.60
2019-03-30T03:16:30.659Z,32.00
2019-03-30T03:19:00.955Z,30.87
2019-03-30T03:21:31.259Z,30.10
2019-03-30T03:24:01.560Z,29.73
2019-03-30T03:26:31.840Z,32.63
2019-03-30T03:29:02.171Z,32.70
2019-03-30T03:31:32.581Z,31.00
2019-03-30T03:34:02.887Z,27.47
2019-03-30T03:36:33.335Z,29.53
2019-03-30T03:39:04.453Z,31.50
2019-03-30T03:41:34.764Z,31.23
2019-03-30T03:44:05.177Z,31.80
2019-03-30T03:46:35.455Z,31.70
2019-03-30T03:49:05.757Z,31.17
2019-03-30T03:51:36.052Z,33.80
2019-03-30T03:54:06.705Z,29.53
2019-03-30T03:56:36.985Z,31.93
2019-03-30T03:59:07.630Z,31.20
2019-03-30T04:01:37.950Z,30.70
2019-03-30T04:04:08.612Z,28.23
2019-03-30T04:06:39.397Z,33.27
2019-03-30T04:09:09.674Z,31.33
2019-03-30T04:11:39.958Z,33.27
2019-03-30T04:14:10.572Z,31.50
2019-03-30T04:16:40.855Z,36.80
2019-03-30T04:19:11.235Z,29.83
2019-03-30T04:21:44.550Z,36.47
2019-03-30T04:24:11.872Z,33.60
2019-03-30T04:26:42.224Z,31.57
2019-03-30T04:29:12.491Z,33.10
2019-03-30T04:31:42.848Z,33.37
2019-03-30T04:34:13.090Z,32.70
2019-03-30T04:36:43.468Z,31.33
2019-03-30T04:39:13.794Z,33.67
2019-03-30T04:41:44.151Z,35.53
2019-03-30T04:44:14.442Z,30.80
2019-03-30T04:46:44.715Z,33.57
2019-03-30T04:49:15.095Z,33.70
2019-03-30T04:51:56.828Z,33.10
2019-03-30T04:54:15.742Z,34.70
2019-03-30T04:56:46.104Z,33.73
2019-03-30T04:59:16.376Z,34.33
2019-03-30T05:01:46.692Z,34.23
2019-03-30T05:04:17.114Z,33.80
2019-03-30T05:06:47.846Z,35.20
2019-03-30T05:09:18.154Z,34.67
2019-03-30T05:11:48.512Z,38.20
2019-03-30T05:14:18.872Z,35.67
2019-03-30T05:16:49.206Z,33.93
2019-03-30T05:19:19.506Z,37.17
2019-03-30T05:21:49.875Z,34.37
2019-03-30T05:24:20.166Z,36.33
2019-03-30T05:26:50.516Z,36.17
2019-03-30T05:29:20.809Z,35.43
2019-03-30T05:31:51.151Z,37.40
2019-03-30T05:34:21.460Z,34.50
2019-03-30T05:36:51.778Z,34.57
2019-03-30T05:39:22.128Z,33.93
2019-03-30T05:41:52.416Z,35.23
2019-03-30T05:44:22.680Z,30.20
2019-03-30T05:46:52.970Z,34.83
2019-03-30T05:49:23.299Z,33.77
2019-03-30T05:51:53.596Z,30.73
2019-03-30T05:54:23.952Z,32.17
2019-03-30T05:56:54.304Z,34.83
2019-03-30T05:59:24.603Z,41.03
2019-03-30T06:01:54.930Z,35.73
2019-03-30T06:04:25.224Z,34.07
2019-03-30T06:06:55.602Z,32.77
2019-03-30T06:09:26.060Z,33.70
2019-03-30T06:11:56.350Z,31.93
2019-03-30T06:14:26.654Z,33.30
2019-03-30T06:16:57.005Z,36.03
2019-03-30T06:19:27.282Z,32.67
2019-03-30T06:21:57.566Z,36.40
2019-03-30T06:24:27.954Z,35.27
2019-03-30T06:26:58.288Z,37.33
2019-03-30T06:29:28.536Z,36.83
2019-03-30T06:31:58.847Z,37.63
2019-03-30T06:34:29.132Z,35.67
2019-03-30T06:36:59.498Z,36.67
2019-03-30T06:39:29.852Z,38.77
2019-03-30T06:42:00.151Z,34.30
2019-03-30T06:44:30.417Z,34.90
2019-03-30T06:47:00.697Z,38.57
2019-03-30T06:49:30.995Z,36.17
2019-03-30T06:52:01.431Z,38.63
2019-03-30T06:54:31.763Z,32.43
2019-03-30T06:57:02.235Z,33.73
2019-03-30T06:59:32.514Z,38.07
2019-03-30T07:02:02.865Z,36.40
2019-03-30T07:04:33.276Z,35.13
2019-03-30T07:07:03.577Z,36.67
2019-03-30T07:09:33.904Z,36.50
2019-03-30T07:12:04.230Z,37.20
2019-03-30T07:14:34.526Z,37.07
2019-03-30T07:17:05.147Z,36.63
2019-03-30T07:19:35.722Z,35.37
2019-03-30T07:22:06.008Z,36.10
2019-03-30T07:24:36.381Z,35.03
2019-03-30T07:27:06.728Z,36.13
2019-03-30T07:29:37.020Z,34.10
2019-03-30T07:32:07.306Z,34.83
2019-03-30T07:34:37.690Z,34.07
2019-03-30T07:37:08.029Z,34.60
2019-03-30T07:39:38.436Z,33.50
2019-03-30T07:42:08.910Z,35.07
2019-03-30T07:44:39.288Z,30.30
2019-03-30T07:47:09.598Z,35.73
2019-03-30T07:49:39.868Z,34.00
2019-03-30T07:52:10.144Z,31.47
2019-03-30T07:54:40.432Z,30.53
2019-03-30T07:57:16.864Z,28.53
2019-03-30T07:59:41.099Z,29.33
2019-03-30T08:02:11.427Z,29.00
2019-03-30T08:04:41.671Z,29.43
2019-03-30T08:07:11.972Z,29.00
2019-03-30T08:09:42.331Z,27.23
2019-03-30T08:12:12.672Z,28.03
2019-03-30T08:14:45.107Z,28.37
2019-03-30T08:17:13.325Z,32.27
2019-03-30T08:19:43.628Z,29.43
2019-03-30T08:22:13.920Z,28.37
2019-03-30T08:24:44.282Z,28.20
2019-03-30T08:27:14.614Z,28.17
2019-03-30T08:29:44.897Z,28.63
2019-03-30T08:32:15.272Z,27.53
2019-03-30T08:34:45.693Z,26.97
2019-03-30T08:37:16.021Z,26.17
2019-03-30T08:39:46.344Z,28.30
2019-03-30T08:42:16.666Z,26.27
2019-03-30T08:44:47.002Z,24.07
2019-03-30T08:47:17.283Z,24.90
2019-03-30T08:49:47.628Z,27.57
2019-03-30T08:52:17.976Z,24.23
2019-03-30T08:54:48.282Z,26.60
2019-03-30T08:57:18.604Z,24.83
2019-03-30T08:59:48.952Z,23.27
2019-03-30T09:02:19.257Z,25.33
2019-03-30T09:04:49.564Z,23.77
2019-03-30T09:07:19.904Z,24.57
2019-03-30T09:09:50.202Z,25.50
2019-03-30T09:12:20.464Z,24.47
2019-03-30T09:14:50.774Z,23.98
2019-03-30T09:17:21.088Z,25.90
2019-03-30T09:19:51.401Z,21.53
2019-03-30T09:22:21.662Z,23.37
2019-03-30T09:24:51.978Z,23.20
2019-03-30T09:27:22.243Z,22.17
2019-03-30T09:29:52.556Z,23.17
2019-03-30T09:32:22.840Z,23.35
2019-03-30T09:34:53.182Z,23.47
2019-03-30T09:37:23.459Z,24.63
2019-03-30T09:39:53.754Z,24.33
2019-03-30T09:42:24.038Z,23.33
2019-03-30T09:44:54.319Z,20.40
2019-03-30T09:47:24.616Z,24.53
2019-03-30T09:49:54.926Z,24.35
2019-03-30T09:52:25.196Z,22.00
2019-03-30T09:54:55.591Z,21.42
2019-03-30T09:57:25.901Z,20.82
2019-03-30T09:59:56.205Z,21.80
2019-03-30T10:02:26.468Z,21.05
2019-03-30T10:04:56.785Z,23.42
2019-03-30T10:07:27.154Z,21.60
2019-03-30T10:09:57.469Z,21.45
2019-03-30T10:12:27.838Z,20.75
2019-03-30T10:14:58.170Z,23.32
2019-03-30T10:17:28.489Z,21.70
2019-03-30T10:20:04.722Z,24.32
2019-03-30T10:22:29.057Z,21.85
2019-03-30T10:24:59.497Z,23.30
2019-03-30T10:27:29.905Z,20.05
2019-03-30T10:30:00.484Z,21.45
2019-03-30T10:32:30.548Z,22.13
2019-03-30T10:35:00.871Z,22.22
2019-03-30T10:37:31.154Z,19.40
2019-03-30T10:40:01.476Z,22.82
2019-03-30T10:42:31.857Z,23.85
2019-03-30T10:45:02.177Z,20.72
2019-03-30T10:47:32.504Z,22.93
2019-03-30T10:50:02.818Z,20.48
2019-03-30T10:52:33.104Z,21.90
2019-03-30T10:55:03.397Z,22.73
2019-03-30T10:57:33.690Z,21.90
2019-03-30T11:00:04.144Z,21.50
2019-03-30T11:02:34.474Z,22.32
2019-03-30T11:05:04.846Z,23.27
2019-03-30T11:07:35.204Z,20.62
2019-03-30T11:10:06.158Z,20.52
2019-03-30T11:12:36.566Z,21.87
2019-03-30T11:15:07.079Z,21.10
2019-03-30T11:17:37.406Z,20.80
2019-03-30T11:20:07.761Z,20.75
2019-03-30T11:22:38.089Z,20.08
2019-03-30T11:25:09.200Z,20.37
2019-03-30T11:27:38.923Z,21.40
2019-03-30T11:30:09.251Z,18.98
2019-03-30T11:32:39.706Z,19.95
2019-03-30T11:35:10.126Z,19.75
2019-03-30T11:37:40.433Z,18.87
2019-03-30T11:40:10.744Z,20.27
2019-03-30T11:42:41.073Z,18.48
2019-03-30T11:45:11.484Z,17.55
2019-03-30T11:47:43.424Z,17.77
2019-03-30T11:50:13.849Z,19.05
2019-03-30T11:52:44.242Z,19.82
2019-03-30T11:55:21.785Z,16.37
2019-03-30T11:57:45.009Z,14.03
2019-03-30T12:00:15.340Z,16.45
2019-03-30T12:02:45.760Z,17.32
2019-03-30T12:05:16.073Z,14.50
2019-03-30T12:07:46.390Z,17.07
2019-03-30T12:10:16.791Z,16.75
2019-03-30T12:12:47.127Z,15.20
2019-03-30T12:15:17.473Z,14.40
2019-03-30T12:17:47.859Z,13.58
2019-03-30T12:20:18.170Z,16.23
2019-03-30T12:22:48.562Z,14.50
2019-03-30T12:25:18.871Z,14.35
2019-03-30T12:27:49.317Z,13.18
2019-03-30T12:30:19.619Z,13.62
2019-03-30T12:32:49.943Z,12.75
2019-03-30T12:35:20.281Z,13.18
2019-03-30T12:37:50.596Z,14.90
2019-03-30T12:40:20.871Z,13.55
2019-03-30T12:42:51.190Z,15.63
2019-03-30T12:45:21.525Z,13.18
2019-03-30T12:47:51.838Z,14.70
2019-03-30T12:50:22.169Z,15.55
2019-03-30T12:52:52.510Z,13.78
2019-03-30T12:55:22.867Z,13.68
2019-03-30T12:57:53.164Z,18.80
2019-03-30T13:00:23.436Z,13.10
2019-03-30T13:02:53.757Z,13.25
2019-03-30T13:05:24.175Z,13.62
2019-03-30T13:07:54.544Z,13.72
2019-03-30T13:10:25.019Z,11.93
2019-03-30T13:12:55.360Z,12.98
2019-03-30T13:15:25.721Z,12.78
2019-03-30T13:17:56.116Z,13.85
2019-03-30T13:20:26.500Z,13.50
2019-03-30T13:22:56.954Z,14.20
2019-03-30T13:25:27.383Z,14.70
2019-03-30T13:27:58.022Z,15.30
2019-03-30T13:30:28.356Z,14.78
2019-03-30T13:32:58.676Z,16.77
2019-03-30T13:35:28.990Z,15.55
2019-03-30T13:37:59.328Z,18.05
2019-03-30T13:40:29.689Z,15.72
2019-03-30T13:42:59.984Z,14.03
2019-03-30T13:45:30.269Z,13.50
2019-03-30T13:48:00.631Z,14.55
2019-03-30T13:50:31.229Z,13.55
2019-03-30T13:53:01.236Z,15.38
2019-03-30T13:55:31.579Z,13.08
2019-03-30T13:58:01.886Z,12.28
2019-03-30T14:00:32.207Z,13.85
2019-03-30T14:03:02.554Z,15.25
2019-03-30T14:05:32.837Z,13.00
2019-03-30T14:08:03.254Z,11.48
2019-03-30T14:10:33.548Z,14.13
2019-03-30T14:13:03.878Z,12.98
2019-03-30T14:15:34.269Z,14.60
2019-03-30T14:18:04.692Z,13.45
2019-03-30T14:20:35.044Z,14.05
2019-03-30T14:23:05.380Z,14.38
2019-03-30T14:25:35.678Z,13.55
2019-03-30T14:28:06.039Z,20.15
2019-03-30T14:30:36.349Z,11.60
2019-03-30T14:33:06.670Z,13.97
2019-03-30T14:35:37.025Z,13.58
2019-03-30T14:38:07.326Z,12.73
2019-03-30T14:40:37.616Z,16.30
2019-03-30T14:43:07.920Z,14.68
2019-03-30T14:45:38.403Z,13.58
2019-03-30T14:48:08.686Z,12.43
2019-03-30T14:50:39.152Z,12.28
2019-03-30T14:53:09.571Z,13.65
2019-03-30T14:55:39.901Z,12.68
2019-03-30T14:58:10.189Z,12.95
2019-03-30T15:00:40.689Z,13.43
2019-03-30T15:03:10.837Z,14.25
2019-03-30T15:05:41.212Z,12.80
2019-03-30T15:08:11.560Z,18.20
2019-03-30T15:10:41.870Z,13.00
2019-03-30T15:13:12.138Z,13.03
2019-03-30T15:15:42.512Z,14.90
2019-03-30T15:18:12.934Z,13.75
2019-03-30T15:20:43.366Z,13.38
2019-03-30T15:23:13.653Z,15.75
2019-03-30T15:25:44.032Z,15.58
2019-03-30T15:28:14.304Z,13.10
2019-03-30T15:30:44.775Z,14.10
2019-03-30T15:33:15.063Z,16.73
2019-03-30T15:35:45.428Z,15.03
2019-03-30T15:38:15.760Z,13.67
2019-03-30T15:40:46.114Z,15.63
2019-03-30T15:43:16.434Z,14.58
2019-03-30T15:45:46.716Z,15.68
2019-03-30T15:48:17.101Z,16.73
2019-03-30T15:50:47.338Z,13.40
2019-03-30T15:53:17.686Z,12.25
2019-03-30T15:55:48.014Z,12.40
2019-03-30T15:58:18.310Z,12.70
2019-03-30T16:00:48.700Z,14.63
2019-03-30T16:03:19.010Z,13.95
2019-03-30T16:05:49.425Z,13.65
2019-03-30T16:08:19.832Z,17.70
2019-03-30T16:10:52.276Z,15.63
2019-03-30T16:13:20.484Z,15.50
2019-03-30T16:15:50.839Z,16.15
2019-03-30T16:18:21.142Z,17.32
2019-03-30T16:20:51.586Z,17.65
2019-03-30T16:23:21.892Z,16.62
2019-03-30T16:25:52.232Z,18.32
2019-03-30T16:28:22.641Z,14.78
2019-03-30T16:30:53.020Z,20.03
2019-03-30T16:33:23.386Z,19.67
2019-03-30T16:35:53.731Z,17.03
2019-03-30T16:38:24.138Z,19.03
2019-03-30T16:40:54.466Z,18.70
2019-03-30T16:43:24.829Z,18.07
2019-03-30T16:45:55.214Z,19.30
2019-03-30T16:48:26.048Z,17.87
2019-03-30T16:50:56.504Z,16.30
2019-03-30T16:53:26.936Z,19.53
2019-03-30T16:55:57.345Z,18.13
2019-03-30T16:58:27.658Z,21.40
2019-03-30T17:00:58.046Z,18.87
2019-03-30T17:03:28.414Z,17.83
2019-03-30T17:05:58.866Z,18.20
2019-03-30T17:08:29.277Z,17.57
2019-03-30T17:10:59.655Z,16.40
2019-03-30T17:13:29.971Z,16.57
2019-03-30T17:16:00.336Z,16.57
2019-03-30T17:18:30.656Z,20.63
2019-03-30T17:21:00.944Z,16.47
2019-03-30T17:23:31.351Z,18.77
2019-03-30T17:26:01.839Z,18.67
2019-03-30T17:28:32.332Z,16.50
2019-03-30T17:31:02.607Z,16.73
2019-03-30T17:33:32.968Z,16.17
2019-03-30T17:36:03.350Z,19.70
2019-03-30T17:38:34.384Z,16.70
2019-03-30T17:41:04.876Z,16.77
2019-03-30T17:43:35.187Z,16.17
2019-03-30T17:46:05.573Z,17.77
2019-03-30T17:48:36.018Z,16.23
2019-03-30T17:51:06.346Z,17.07
2019-03-30T17:53:39.466Z,15.33
2019-03-30T17:56:07.345Z,17.77
2019-03-30T17:58:37.961Z,15.57
2019-03-30T18:01:08.353Z,15.37
2019-03-30T18:03:38.920Z,16.67
2019-03-30T18:06:09.401Z,16.87
2019-03-30T18:08:53.520Z,16.27
2019-03-30T18:11:23.820Z,14.00
2019-03-30T18:13:54.148Z,19.50
2019-03-30T18:16:24.558Z,16.13
2019-03-30T18:18:54.868Z,15.23
2019-03-30T18:21:25.266Z,16.00
2019-03-30T18:23:55.752Z,19.63
2019-03-30T18:26:26.135Z,19.70
2019-03-30T18:28:56.445Z,18.47
2019-03-30T18:31:26.794Z,16.67
2019-03-30T18:33:57.247Z,17.87
2019-03-30T18:36:27.639Z,15.60
2019-03-30T18:39:09.350Z,17.53
2019-03-30T18:41:29.310Z,16.43
2019-03-30T18:44:02.142Z,17.03
2019-03-30T18:46:30.195Z,17.30
2019-03-30T18:49:00.564Z,18.13
2019-03-30T18:51:30.958Z,18.90
2019-03-30T18:54:01.325Z,17.30
2019-03-30T18:56:31.831Z,18.07
2019-03-30T18:59:02.148Z,17.47
2019-03-30T19:01:32.524Z,18.47
2019-03-30T19:04:02.879Z,16.83
2019-03-30T19:06:33.194Z,20.17
2019-03-30T19:09:04.712Z,19.10
2019-03-30T19:11:35.144Z,18.80
2019-03-30T19:14:05.498Z,18.43
2019-03-30T19:16:35.773Z,19.03
2019-03-30T19:19:06.054Z,20.40
2019-03-30T19:21:36.444Z,22.43
2019-03-30T19:24:06.980Z,20.63
2019-03-30T19:26:37.316Z,23.47
2019-03-30T19:29:07.765Z,19.33
2019-03-30T19:31:38.175Z,20.90
2019-03-30T19:34:08.500Z,20.50
2019-03-30T19:36:38.885Z,21.63
2019-03-30T19:39:09.799Z,20.97
2019-03-30T19:41:40.186Z,19.57
2019-03-30T19:44:11.680Z,19.63
2019-03-30T19:46:42.098Z,22.47
2019-03-30T19:49:12.457Z,17.37
2019-03-30T19:51:42.840Z,19.93
2019-03-30T19:54:13.176Z,19.33
2019-03-30T19:56:43.564Z,20.97
2019-03-30T19:59:14.148Z,19.73
2019-03-30T20:01:44.448Z,17.33
2019-03-30T20:04:14.783Z,18.80
2019-03-30T20:06:45.180Z,18.17
2019-03-30T20:09:15.527Z,17.70
2019-03-30T20:11:45.904Z,17.07
2019-03-30T20:14:16.242Z,18.60
2019-03-30T20:16:46.698Z,16.87
2019-03-30T20:19:17.020Z,17.90
2019-03-30T20:21:47.310Z,18.53
2019-03-30T20:24:17.615Z,18.70
2019-03-30T20:26:47.938Z,18.37
2019-03-30T20:29:25.215Z,17.93
2019-03-30T20:31:48.946Z,17.97
2019-03-30T20:34:19.558Z,20.00
2019-03-30T20:36:49.860Z,19.03
2019-03-30T20:39:20.266Z,24.63
2019-03-30T20:41:51.159Z,22.07
2019-03-30T20:44:21.920Z,20.30
2019-03-30T20:46:52.398Z,23.73
2019-03-30T20:49:22.900Z,19.97
2019-03-30T20:51:53.567Z,24.40
2019-03-30T20:54:24.050Z,28.60
2019-03-30T20:56:54.464Z,24.23
2019-03-30T20:59:39.095Z,31.27
2019-03-30T21:01:55.346Z,30.83
2019-03-30T21:04:25.744Z,32.90
2019-03-30T21:06:56.078Z,31.40
2019-03-30T21:09:26.511Z,36.57
2019-03-30T21:11:56.991Z,32.70
2019-03-30T21:14:27.302Z,41.60
2019-03-30T21:16:57.859Z,34.47
2019-03-30T21:19:28.195Z,38.73
2019-03-30T21:21:58.579Z,44.27
2019-03-30T21:24:29.037Z,43.47
2019-03-30T21:26:59.367Z,41.93
2019-03-30T21:29:29.678Z,47.50
2019-03-30T21:31:59.992Z,49.07
2019-03-30T21:34:30.325Z,47.77
2019-03-30T21:37:00.766Z,46.47
2019-03-30T21:39:31.035Z,47.63
2019-03-30T21:42:01.670Z,46.23
2019-03-30T21:44:32.298Z,50.87
2019-03-30T21:47:02.979Z,53.50
2019-03-30T21:49:33.307Z,54.40
2019-03-30T21:52:03.687Z,50.73
2019-03-30T21:54:33.993Z,52.43
2019-03-30T21:57:04.329Z,52.97
2019-03-30T21:59:34.695Z,52.27
2019-03-30T22:02:05.087Z,55.57
2019-03-30T22:04:35.475Z,52.27
2019-03-30T22:07:05.766Z,53.67
2019-03-30T22:09:36.150Z,57.13
2019-03-30T22:12:06.511Z,58.10
2019-03-30T22:14:36.843Z,58.47
2019-03-30T22:17:07.141Z,61.13
2019-03-30T22:19:37.518Z,58.13
2019-03-30T22:22:07.857Z,60.13
2019-03-30T22:24:38.298Z,69.67
2019-03-30T22:27:08.645Z,62.53
2019-03-30T22:29:39.132Z,62.90
2019-03-30T22:32:09.407Z,67.20
2019-03-30T22:34:39.724Z,68.80
2019-03-30T22:37:10.042Z,71.80
2019-03-30T22:39:40.463Z,67.10
2019-03-30T22:42:10.803Z,66.93
2019-03-30T22:44:41.180Z,70.90
2019-03-30T22:47:11.558Z,63.17
2019-03-30T22:49:41.870Z,68.60
2019-03-30T22:52:12.223Z,71.23
2019-03-30T22:54:42.534Z,72.27
2019-03-30T22:57:12.898Z,71.87
2019-03-30T22:59:43.238Z,73.50
2019-03-30T23:02:13.594Z,73.53
2019-03-30T23:04:43.898Z,74.30
2019-03-30T23:07:14.332Z,68.07
2019-03-30T23:09:44.672Z,74.10
2019-03-30T23:12:14.973Z,74.77
2019-03-30T23:14:45.320Z,69.50
2019-03-30T23:17:15.625Z,77.83
2019-03-30T23:19:45.971Z,79.70
2019-03-30T23:22:16.300Z,71.73
2019-03-30T23:24:46.642Z,78.20
2019-03-30T23:27:16.999Z,82.63
2019-03-30T23:29:47.365Z,76.13
2019-03-30T23:32:17.719Z,77.60
2019-03-30T23:34:48.044Z,74.07
2019-03-30T23:37:18.344Z,77.40
2019-03-30T23:39:48.692Z,80.23
2019-03-30T23:42:19.053Z,79.70
2019-03-30T23:44:49.420Z,77.77
2019-03-30T23:47:19.877Z,78.90
2019-03-30T23:49:50.195Z,78.93
2019-03-30T23:52:20.511Z,81.03
2019-03-30T23:54:50.900Z,87.10
2019-03-30T23:57:21.251Z,72.60
2019-03-30T23:59:51.575Z,78.13
